Main page
METAR-TAF:

METAR-TAF

Airports :

Jersey Airport

Jersey,

latitude: 49-13N, longitude: 002-12W, elevation: 84 m

Current weather observation

The report was made 30 minutes ago, at 09:50 UTC
Wind 9 kt from the West/Northwest, varying between West and Northwest
Temperature 9°C
Humidity 71%
Pressure 1003 hPa
Visibility 10 km or more
Few clouds at a height of 1600 ft, Cumulonimbus.

METAR: EGJJ 030950Z 29009KT 260V320 9999 FEW016CB 09/04 Q1003

Time: 10:20 (10:20 UTC)

Forecast

The report was made 2 hours and 15 minutes ago, at 08:05 UTC
Forecast valid from 03 at 09 UTC to 03 at 18 UTC
Wind 8 kt from the West
Visibility 10 km or more
Few clouds at a height of 1600 ft
Scattered clouds at a height of 3500 ft
Probability 30% :
Temporary
from 03 at 09 UTC to 03 at 18 UTC
Visibility: 6000 m
Few clouds at a height of 800 ft
Broken clouds at a height of 1400 ft, Cumulonimbus.
rain showers,

TAF: EGJJ 030805Z 0309/0318 28008KT 9999 FEW016 SCT035 PROB30 TEMPO 0309/0318 6000 SHRA FEW008 BKN014CB

Weather observations and forecasts of more than 4000 airports (METAR and TAF reports).

The available stations are represented by yellow and red dots on the map.

Hover mouse over dot to see the name of the station.

Then click to see weather observations and forecasts.

To change the map : click on the green buttons with a black cross to zoom in, on the green button with a dash to zoom out, or on the green arrows for adjacent maps.


METAR-TAF: